Time;durP1;ratioP1;P1;durP2;ratioP2;P2;SDS_P1;SDS_P2;PMS_P1;PMS_P2;Temp;Humidity;BMP_temperature;BMP_pressure;BME280_temperature;BME280_humidity;BME280_pressure;Samples;Min_cycle;Max_cycle;Signal;HPM_P1;HPM_P2
2023/04/17 00:00:33;;;;;;;20.40;14.00;;;6.90;99.90;;;;;;5187410;28;20204;-49
2023/04/17 00:03:04;;;;;;;20.13;11.90;;;7.00;99.90;;;;;;5184726;28;20186;-49
2023/04/17 00:05:35;;;;;;;18.60;12.83;;;6.90;99.90;;;;;;5181382;28;20566;-51
2023/04/17 00:08:05;;;;;;;16.30;13.00;;;6.90;99.90;;;;;;5176730;28;20294;-49
2023/04/17 00:10:36;;;;;;;16.40;12.47;;;6.90;99.90;;;;;;5180873;28;20215;-49
2023/04/17 00:13:06;;;;;;;18.10;12.90;;;7.00;99.90;;;;;;5178630;28;20195;-49
2023/04/17 00:15:37;;;;;;;20.20;12.20;;;7.00;99.90;;;;;;5183579;28;20631;-47
2023/04/17 00:18:08;;;;;;;21.97;12.90;;;7.00;99.90;;;;;;5182954;28;20204;-52
2023/04/17 00:20:38;;;;;;;24.40;13.17;;;7.00;99.90;;;;;;5183633;28;20614;-48
2023/04/17 00:23:09;;;;;;;17.80;12.10;;;7.10;99.90;;;;;;5181213;28;20181;-51
2023/04/17 00:25:39;;;;;;;15.73;12.40;;;7.10;99.90;;;;;;5181923;28;20302;-49
2023/04/17 00:28:10;;;;;;;14.77;11.77;;;7.00;99.90;;;;;;5179493;28;20212;-49
2023/04/17 00:30:41;;;;;;;17.60;11.90;;;7.10;99.90;;;;;;5179324;28;20207;-49
2023/04/17 00:33:11;;;;;;;23.40;13.90;;;7.10;99.90;;;;;;5183510;28;20290;-51
2023/04/17 00:35:42;;;;;;;19.70;12.60;;;7.00;99.90;;;;;;5184116;28;20188;-49
2023/04/17 00:38:12;;;;;;;15.03;11.33;;;7.10;99.90;;;;;;5185606;28;20208;-50
2023/04/17 00:40:47;;;;;;;16.77;11.87;;;7.10;99.90;;;;;;5186949;28;20208;-49
2023/04/17 00:43:19;;;;;;;16.60;10.73;;;7.10;99.90;;;;;;5187440;28;20217;-49
2023/04/17 00:45:51;;;;;;;14.43;10.50;;;7.10;99.90;;;;;;5180417;28;20434;-48
2023/04/17 00:48:23;;;;;;;14.20;11.30;;;7.10;99.90;;;;;;5181429;28;20516;-49
2023/04/17 00:50:54;;;;;;;15.30;11.17;;;7.10;99.90;;;;;;5174252;28;20420;-49
2023/04/17 00:53:24;;;;;;;17.23;11.70;;;7.10;99.90;;;;;;5172970;28;20435;-48
2023/04/17 00:55:57;;;;;;;14.33;10.97;;;7.10;99.90;;;;;;5182702;28;20803;-48
2023/04/17 00:58:28;;;;;;;27.83;12.47;;;7.10;99.90;;;;;;5183862;28;20270;-49
2023/04/17 01:00:59;;;;;;;16.50;11.90;;;7.10;99.90;;;;;;5181166;28;20935;-49
2023/04/17 01:03:31;;;;;;;16.40;11.63;;;7.10;99.90;;;;;;5182668;28;20571;-48
2023/04/17 01:06:02;;;;;;;17.60;12.40;;;7.00;99.90;;;;;;5171126;28;20202;-49
2023/04/17 01:08:43;;;;;;;19.00;11.50;;;7.00;99.90;;;;;;5181127;28;21085;-50
2023/04/17 01:11:13;;;;;;;19.20;11.70;;;7.00;99.90;;;;;;5179289;28;20278;-50
2023/04/17 01:13:48;;;;;;;19.57;11.93;;;7.10;99.90;;;;;;5173132;28;20605;-50
2023/04/17 01:16:19;;;;;;;17.03;11.90;;;7.00;99.90;;;;;;5171167;28;20197;-47
2023/04/17 01:18:50;;;;;;;16.90;12.83;;;7.00;99.90;;;;;;5163229;28;20447;-48
2023/04/17 01:21:21;;;;;;;20.73;11.60;;;7.00;99.90;;;;;;5178777;28;20208;-48
2023/04/17 01:23:51;;;;;;;21.43;12.40;;;7.00;99.90;;;;;;5179057;28;20481;-49
2023/04/17 01:26:24;;;;;;;17.60;12.47;;;6.90;99.90;;;;;;5178405;28;20235;-48
2023/04/17 01:28:56;;;;;;;17.63;11.07;;;6.90;99.90;;;;;;5177740;28;20238;-49
2023/04/17 01:31:28;;;;;;;20.57;11.93;;;6.90;99.90;;;;;;5171077;28;20473;-50
2023/04/17 01:33:59;;;;;;;18.60;11.77;;;7.00;99.90;;;;;;5177781;28;20448;-50
2023/04/17 01:36:30;;;;;;;19.23;12.30;;;6.90;99.90;;;;;;5177439;28;20445;-49
2023/04/17 01:39:01;;;;;;;16.63;11.77;;;6.90;99.90;;;;;;5177779;28;20467;-49
2023/04/17 01:41:31;;;;;;;32.90;11.37;;;6.80;99.90;;;;;;5180259;28;20204;-49
2023/04/17 01:44:02;;;;;;;18.83;12.43;;;6.70;99.90;;;;;;5176289;28;20648;-49
2023/04/17 01:46:33;;;;;;;22.53;13.13;;;6.60;99.90;;;;;;5179746;28;20905;-49
2023/04/17 01:49:04;;;;;;;21.07;12.60;;;6.60;99.90;;;;;;5179657;28;20212;-50
2023/04/17 01:51:34;;;;;;;31.07;12.40;;;6.50;99.90;;;;;;5181210;28;20184;-49
2023/04/17 01:54:05;;;;;;;23.00;13.43;;;6.50;99.90;;;;;;5175982;28;20266;-49
2023/04/17 01:56:36;;;;;;;17.93;12.30;;;6.50;99.90;;;;;;5182477;28;20219;-49
2023/04/17 01:59:07;;;;;;;17.27;11.90;;;6.50;99.90;;;;;;5177049;28;20658;-50
2023/04/17 02:01:37;;;;;;;21.20;12.53;;;6.40;99.90;;;;;;5174925;28;20215;-49
2023/04/17 02:04:08;;;;;;;20.33;13.13;;;6.40;99.90;;;;;;5183188;28;20180;-47
2023/04/17 02:06:38;;;;;;;22.30;12.80;;;6.30;99.90;;;;;;5179131;28;20176;-49
2023/04/17 02:09:09;;;;;;;18.80;12.40;;;6.30;99.90;;;;;;5177007;28;20208;-49
2023/04/17 02:11:40;;;;;;;17.87;12.40;;;6.30;99.90;;;;;;5177186;28;20267;-52
2023/04/17 02:14:11;;;;;;;21.40;12.27;;;6.30;99.90;;;;;;5179858;28;20920;-48
2023/04/17 02:16:44;;;;;;;20.13;13.30;;;6.20;99.90;;;;;;5173783;28;20194;-48
2023/04/17 02:19:14;;;;;;;18.23;12.10;;;6.20;99.90;;;;;;5179398;28;20172;-48
2023/04/17 02:21:45;;;;;;;27.00;13.37;;;6.20;99.90;;;;;;5178337;28;20440;-47
2023/04/17 02:24:16;;;;;;;16.13;11.90;;;6.10;99.90;;;;;;5176943;28;20216;-48
2023/04/17 02:26:47;;;;;;;20.70;12.37;;;6.10;99.90;;;;;;5175639;28;20184;-48
2023/04/17 02:29:17;;;;;;;16.27;12.37;;;6.00;99.90;;;;;;5176241;28;20183;-48
2023/04/17 02:31:48;;;;;;;19.03;12.33;;;6.10;99.90;;;;;;5183014;28;20832;-49
2023/04/17 02:34:19;;;;;;;14.47;12.00;;;6.00;99.90;;;;;;5180524;28;20287;-50
2023/04/17 02:36:49;;;;;;;20.40;12.03;;;5.90;99.90;;;;;;5185633;28;20625;-49
2023/04/17 02:39:20;;;;;;;23.57;13.77;;;5.90;99.90;;;;;;5167017;28;20170;-51
2023/04/17 02:41:51;;;;;;;21.13;12.43;;;5.90;99.90;;;;;;5187650;28;20172;-50
2023/04/17 02:44:21;;;;;;;22.60;13.23;;;5.90;99.90;;;;;;5178835;28;20203;-50
2023/04/17 02:46:52;;;;;;;19.03;12.50;;;5.80;99.90;;;;;;5184590;28;20554;-49
2023/04/17 02:49:23;;;;;;;26.07;14.17;;;5.70;99.90;;;;;;5186196;28;20173;-49
2023/04/17 02:51:53;;;;;;;19.57;11.70;;;5.70;99.90;;;;;;5181255;28;20179;-49
2023/04/17 02:54:24;;;;;;;19.50;13.77;;;5.70;99.90;;;;;;5184487;28;20192;-48
2023/04/17 02:56:57;;;;;;;19.53;14.03;;;5.60;99.90;;;;;;5180269;28;20179;-48
2023/04/17 02:59:28;;;;;;;19.07;12.90;;;5.60;99.90;;;;;;5184041;28;22192;-50
2023/04/17 03:01:59;;;;;;;24.07;14.20;;;5.70;99.90;;;;;;5179153;28;20996;-50
2023/04/17 03:04:29;;;;;;;18.80;14.20;;;5.60;99.90;;;;;;5184135;28;20187;-48
2023/04/17 03:07:00;;;;;;;17.77;12.90;;;5.60;99.90;;;;;;5179300;28;20741;-49
2023/04/17 03:09:33;;;;;;;19.10;13.53;;;5.60;99.90;;;;;;5181096;28;20200;-49
2023/04/17 03:12:04;;;;;;;24.30;13.60;;;5.60;99.90;;;;;;5201778;28;20191;-50
2023/04/17 03:14:35;;;;;;;24.93;14.23;;;5.50;99.90;;;;;;5177258;28;20481;-48
2023/04/17 03:17:07;;;;;;;26.03;14.37;;;5.50;99.90;;;;;;5181349;28;20572;-49
2023/04/17 03:19:38;;;;;;;19.43;13.27;;;5.60;99.90;;;;;;5178189;28;20208;-48
2023/04/17 03:22:08;;;;;;;19.87;14.23;;;5.60;99.90;;;;;;5184816;28;20856;-50
2023/04/17 03:24:40;;;;;;;23.70;13.93;;;5.60;99.90;;;;;;5181592;28;20259;-48
2023/04/17 03:27:10;;;;;;;22.13;14.10;;;5.60;99.90;;;;;;5177087;28;20202;-52
2023/04/17 03:29:41;;;;;;;25.10;14.23;;;5.50;99.90;;;;;;5181066;28;20439;-50
2023/04/17 03:32:11;;;;;;;23.43;15.37;;;5.50;99.90;;;;;;5182190;28;20188;-49
2023/04/17 03:34:42;;;;;;;20.47;13.37;;;5.50;99.90;;;;;;5183416;28;20229;-48
2023/04/17 03:37:13;;;;;;;21.27;14.23;;;5.50;99.90;;;;;;5175836;28;20582;-49
2023/04/17 03:39:43;;;;;;;31.53;13.80;;;5.50;99.90;;;;;;5181599;28;20212;-49
2023/04/17 03:42:14;;;;;;;22.83;14.13;;;5.40;99.90;;;;;;5180230;28;20242;-50
2023/04/17 03:44:45;;;;;;;23.93;15.53;;;5.40;99.90;;;;;;5183244;28;20624;-50
2023/04/17 03:47:16;;;;;;;22.03;15.07;;;5.30;99.90;;;;;;5175064;28;20211;-51
2023/04/17 03:49:46;;;;;;;37.07;15.80;;;5.30;99.90;;;;;;5175740;28;20443;-49
2023/04/17 03:52:17;;;;;;;24.53;15.43;;;5.30;99.90;;;;;;5181339;28;20314;-48
2023/04/17 03:54:47;;;;;;;25.53;14.83;;;5.30;99.90;;;;;;5178153;28;20575;-48
2023/04/17 03:57:18;;;;;;;20.90;16.27;;;5.30;99.90;;;;;;5177514;28;20218;-49
2023/04/17 03:59:49;;;;;;;20.70;15.63;;;5.30;99.90;;;;;;5183152;28;20227;-50
2023/04/17 04:02:19;;;;;;;24.47;16.63;;;5.40;99.90;;;;;;5183138;28;20187;-47
2023/04/17 04:04:50;;;;;;;23.70;16.20;;;5.40;99.90;;;;;;5176071;28;20196;-48
2023/04/17 04:07:21;;;;;;;20.33;16.43;;;5.50;99.90;;;;;;5179922;28;20222;-51
2023/04/17 04:09:51;;;;;;;35.20;15.60;;;5.50;99.90;;;;;;5179198;28;20652;-50
2023/04/17 04:12:22;;;;;;;25.40;16.30;;;5.50;99.90;;;;;;5180537;28;20206;-49
2023/04/17 04:14:52;;;;;;;23.50;15.27;;;5.60;99.90;;;;;;5177633;28;20212;-48
2023/04/17 04:17:23;;;;;;;28.37;16.50;;;5.60;99.90;;;;;;5178957;28;20211;-49
2023/04/17 04:19:54;;;;;;;24.90;16.47;;;5.60;99.90;;;;;;5180394;28;20212;-48
2023/04/17 04:22:24;;;;;;;35.03;16.13;;;5.50;99.90;;;;;;5180900;28;20190;-49
2023/04/17 04:24:55;;;;;;;23.30;15.83;;;5.50;99.90;;;;;;5180337;28;20246;-51
2023/04/17 04:27:26;;;;;;;25.10;17.03;;;5.50;99.90;;;;;;5181137;28;20237;-51
2023/04/17 04:30:00;;;;;;;30.23;15.77;;;5.50;99.90;;;;;;5175657;28;20188;-51
2023/04/17 04:32:32;;;;;;;29.47;17.13;;;5.60;99.90;;;;;;5195898;28;20446;-51
2023/04/17 04:35:05;;;;;;;28.10;16.53;;;5.60;99.90;;;;;;5179255;28;20439;-50
2023/04/17 04:37:36;;;;;;;24.03;15.80;;;5.60;99.90;;;;;;5177134;28;20459;-49
2023/04/17 04:40:09;;;;;;;29.73;17.77;;;5.70;99.90;;;;;;5177564;28;20524;-49
2023/04/17 04:42:41;;;;;;;27.10;16.27;;;5.70;99.90;;;;;;5176238;28;20181;-49
2023/04/17 04:45:11;;;;;;;21.90;16.27;;;5.70;99.90;;;;;;5173940;28;20435;-50
2023/04/17 04:47:42;;;;;;;28.93;16.90;;;5.80;99.90;;;;;;5180281;28;20464;-50
2023/04/17 04:50:12;;;;;;;38.50;15.90;;;5.90;99.90;;;;;;5181709;28;20187;-49
2023/04/17 04:52:43;;;;;;;25.80;15.43;;;5.90;99.90;;;;;;5183795;28;20518;-50
2023/04/17 04:55:14;;;;;;;29.47;17.50;;;6.00;99.90;;;;;;5183078;28;20231;-49
2023/04/17 04:57:44;;;;;;;32.43;18.10;;;6.00;99.90;;;;;;5182181;28;20222;-52
2023/04/17 05:00:16;;;;;;;22.90;15.77;;;6.10;99.90;;;;;;5186756;28;20216;-50
2023/04/17 05:02:47;;;;;;;27.50;16.57;;;6.10;99.90;;;;;;5176910;28;20184;-52
2023/04/17 05:05:18;;;;;;;24.37;15.43;;;6.20;99.90;;;;;;5175884;28;20451;-51
2023/04/17 05:07:48;;;;;;;23.10;16.50;;;6.20;99.90;;;;;;5177933;28;20219;-50
2023/04/17 05:10:19;;;;;;;27.23;17.40;;;6.30;99.90;;;;;;5179474;28;20239;-50
2023/04/17 05:12:50;;;;;;;30.00;16.77;;;6.30;99.90;;;;;;5178503;28;20235;-51
2023/04/17 05:15:21;;;;;;;25.33;17.60;;;6.30;99.90;;;;;;5178293;28;20533;-50
2023/04/17 05:17:51;;;;;;;28.23;17.27;;;6.30;99.90;;;;;;5179069;28;20268;-49
2023/04/17 05:20:22;;;;;;;36.17;19.10;;;6.30;99.90;;;;;;5178516;28;20216;-49
2023/04/17 05:22:52;;;;;;;29.53;18.73;;;6.20;99.90;;;;;;5179144;28;20227;-50
2023/04/17 05:25:23;;;;;;;33.03;19.40;;;6.20;99.90;;;;;;5174651;28;20191;-50
2023/04/17 05:27:54;;;;;;;36.83;22.03;;;6.10;99.90;;;;;;5176818;28;20220;-50
2023/04/17 05:30:25;;;;;;;37.37;20.87;;;6.10;99.90;;;;;;5173007;28;20225;-54
2023/04/17 05:32:55;;;;;;;38.30;21.93;;;6.10;99.90;;;;;;5189616;28;20195;-48
2023/04/17 05:35:27;;;;;;;37.23;21.67;;;6.20;99.90;;;;;;5179593;28;20652;-48
2023/04/17 05:37:57;;;;;;;46.43;20.57;;;6.20;99.90;;;;;;5175320;28;20215;-49
2023/04/17 05:40:28;;;;;;;31.90;21.13;;;6.30;99.90;;;;;;5172947;28;20970;-48
2023/04/17 05:43:08;;;;;;;37.97;20.60;;;6.30;99.90;;;;;;5177571;28;20200;-50
2023/04/17 05:45:40;;;;;;;32.77;21.07;;;6.40;99.90;;;;;;5178075;28;20184;-49
2023/04/17 05:48:11;;;;;;;36.00;21.20;;;6.40;99.90;;;;;;5165818;28;20455;-50
2023/04/17 05:50:41;;;;;;;34.90;21.87;;;6.40;99.90;;;;;;5177570;28;20453;-49
2023/04/17 05:53:12;;;;;;;35.50;20.30;;;6.40;99.90;;;;;;5175345;28;20193;-49
2023/04/17 05:55:42;;;;;;;39.87;22.83;;;6.50;99.90;;;;;;5172833;28;20188;-49
2023/04/17 05:58:13;;;;;;;43.03;24.03;;;6.30;99.90;;;;;;5179417;28;20289;-50
2023/04/17 06:00:44;;;;;;;44.83;24.00;;;6.30;99.90;;;;;;5176551;28;20279;-52
2023/04/17 06:03:15;;;;;;;43.00;23.50;;;6.30;99.90;;;;;;5154939;28;20275;-51
2023/04/17 06:05:47;;;;;;;43.93;23.73;;;6.30;99.90;;;;;;5154632;28;20184;-49
2023/04/17 06:08:18;;;;;;;64.77;25.20;;;6.30;99.90;;;;;;5173761;28;20474;-52
2023/04/17 06:10:49;;;;;;;42.77;25.10;;;6.30;99.90;;;;;;5186102;28;20992;-49
2023/04/17 06:13:22;;;;;;;34.10;23.33;;;6.30;99.90;;;;;;5180117;28;20531;-47
2023/04/17 06:15:52;;;;;;;39.97;24.67;;;6.30;99.90;;;;;;5178772;28;20435;-49
2023/04/17 06:18:23;;;;;;;46.70;23.27;;;6.40;99.90;;;;;;5166125;28;20977;-48
2023/04/17 06:20:54;;;;;;;41.07;23.07;;;6.40;99.90;;;;;;5176307;28;20222;-49
2023/04/17 06:23:24;;;;;;;33.90;21.43;;;6.50;99.90;;;;;;5177765;28;20602;-49
2023/04/17 06:25:55;;;;;;;37.30;24.00;;;6.60;99.90;;;;;;5172749;28;20708;-49
2023/04/17 06:28:26;;;;;;;39.00;22.83;;;6.60;99.90;;;;;;5173358;28;20232;-49
2023/04/17 06:30:57;;;;;;;41.00;24.20;;;6.50;99.90;;;;;;5159442;28;20477;-48
2023/04/17 06:33:27;;;;;;;47.90;25.70;;;6.30;99.90;;;;;;5176124;28;20222;-49
2023/04/17 06:35:58;;;;;;;48.40;26.20;;;6.30;99.90;;;;;;5177858;28;20185;-48
2023/04/17 06:38:29;;;;;;;46.23;26.37;;;6.40;99.90;;;;;;5174961;28;20204;-50
2023/04/17 06:40:59;;;;;;;43.70;25.23;;;6.30;99.90;;;;;;5178401;28;20563;-50
2023/04/17 06:43:30;;;;;;;49.10;23.30;;;6.30;99.90;;;;;;5175403;28;20204;-50
2023/04/17 06:46:01;;;;;;;40.70;25.00;;;6.30;99.90;;;;;;5173944;28;20200;-52
2023/04/17 06:48:31;;;;;;;45.13;24.70;;;6.40;99.90;;;;;;5169952;28;20296;-51
2023/04/17 06:51:02;;;;;;;43.40;25.43;;;6.40;99.90;;;;;;5170198;28;20562;-50
2023/04/17 06:53:32;;;;;;;38.33;23.87;;;6.40;99.90;;;;;;5172612;28;20195;-51
2023/04/17 06:56:03;;;;;;;34.17;21.87;;;6.60;99.90;;;;;;5177156;28;20528;-52
2023/04/17 06:58:41;;;;;;;37.80;22.00;;;6.70;99.90;;;;;;5176017;28;20700;-51
2023/04/17 07:01:12;;;;;;;40.83;22.30;;;6.80;99.90;;;;;;5177394;28;20501;-49
2023/04/17 07:03:43;;;;;;;40.00;23.87;;;6.80;99.90;;;;;;5173519;28;20446;-51
2023/04/17 07:06:14;;;;;;;32.30;21.87;;;6.90;99.90;;;;;;5169265;28;20443;-51
2023/04/17 07:08:44;;;;;;;31.33;20.50;;;7.10;99.90;;;;;;5189251;28;20227;-50
2023/04/17 07:11:15;;;;;;;34.77;20.37;;;7.20;99.90;;;;;;5172728;28;20692;-51
2023/04/17 07:13:46;;;;;;;35.80;21.40;;;7.20;99.90;;;;;;5172631;28;20176;-51
2023/04/17 07:16:16;;;;;;;45.13;21.50;;;7.20;99.90;;;;;;5180766;28;20201;-50
2023/04/17 07:18:48;;;;;;;35.97;21.07;;;7.10;99.90;;;;;;5185089;28;20342;-48
2023/04/17 07:21:19;;;;;;;34.30;20.40;;;6.90;99.90;;;;;;5184085;28;20204;-50
2023/04/17 07:23:49;;;;;;;36.30;20.73;;;7.00;99.90;;;;;;5174378;28;20776;-51
2023/04/17 07:26:21;;;;;;;44.57;22.37;;;7.00;99.90;;;;;;5173429;28;20204;-50
2023/04/17 07:28:52;;;;;;;31.30;21.10;;;7.00;99.90;;;;;;5173284;28;20201;-49
2023/04/17 07:31:22;;;;;;;38.70;21.77;;;7.00;99.90;;;;;;5181785;28;20509;-50
2023/04/17 07:33:53;;;;;;;38.83;22.03;;;7.00;99.90;;;;;;5178222;28;20663;-52
2023/04/17 07:36:27;;;;;;;41.90;22.07;;;7.00;99.90;;;;;;5176882;28;20193;-51
2023/04/17 07:38:58;;;;;;;36.93;21.67;;;7.00;99.90;;;;;;5178618;28;20292;-50
2023/04/17 07:41:28;;;;;;;34.80;21.20;;;7.00;99.90;;;;;;5180103;28;21196;-52
2023/04/17 07:44:02;;;;;;;37.87;21.63;;;7.10;99.90;;;;;;5174173;28;20189;-49
2023/04/17 07:46:32;;;;;;;37.03;21.07;;;7.10;99.90;;;;;;5160558;28;20181;-52
2023/04/17 07:49:03;;;;;;;37.00;21.80;;;7.00;99.90;;;;;;5184556;28;20461;-51
2023/04/17 07:51:34;;;;;;;34.03;21.40;;;7.00;99.90;;;;;;5179841;28;20219;-49
2023/04/17 07:54:05;;;;;;;32.33;21.20;;;7.00;99.90;;;;;;5178250;28;20184;-48
2023/04/17 07:56:35;;;;;;;36.90;20.47;;;7.00;99.90;;;;;;5178839;28;20440;-49
2023/04/17 07:59:06;;;;;;;35.53;21.03;;;7.10;99.90;;;;;;5181097;28;20372;-49
2023/04/17 08:01:37;;;;;;;32.63;20.73;;;7.20;99.90;;;;;;5180390;28;20211;-49
2023/04/17 08:04:08;;;;;;;31.30;20.17;;;7.30;99.90;;;;;;5177615;28;20439;-49
2023/04/17 08:06:38;;;;;;;36.30;20.70;;;7.40;99.90;;;;;;5180398;28;20193;-50
2023/04/17 08:09:09;;;;;;;36.07;21.97;;;7.50;99.90;;;;;;5174691;28;20247;-50
2023/04/17 08:11:42;;;;;;;31.57;20.30;;;7.60;99.90;;;;;;5162081;28;20680;-50
2023/04/17 08:14:14;;;;;;;36.53;18.53;;;7.90;99.90;;;;;;5178080;28;20649;-49
2023/04/17 08:16:48;;;;;;;33.47;19.93;;;8.40;99.90;;;;;;5173868;28;20998;-52
2023/04/17 08:19:19;;;;;;;32.77;20.20;;;8.40;99.90;;;;;;5175880;28;20454;-50
2023/04/17 08:21:50;;;;;;;31.40;19.20;;;8.10;99.90;;;;;;5179687;28;21016;-50
2023/04/17 08:24:21;;;;;;;30.53;18.97;;;8.00;99.90;;;;;;5176700;28;20168;-50
2023/04/17 08:26:51;;;;;;;24.77;16.70;;;8.10;99.90;;;;;;5175706;28;20436;-48
2023/04/17 08:29:22;;;;;;;29.80;20.57;;;8.10;99.90;;;;;;5175714;28;20564;-49
2023/04/17 08:31:53;;;;;;;30.20;18.40;;;8.10;99.90;;;;;;5181523;28;20181;-49
2023/04/17 08:34:24;;;;;;;27.20;18.80;;;8.20;99.90;;;;;;5182115;28;21199;-49
2023/04/17 08:36:55;;;;;;;27.87;19.00;;;8.40;99.90;;;;;;5181004;28;20263;-49
2023/04/17 08:39:26;;;;;;;38.53;19.23;;;8.40;99.90;;;;;;5175265;28;20737;-48
2023/04/17 08:42:01;;;;;;;29.23;19.10;;;8.50;99.90;;;;;;5181910;28;20208;-50
2023/04/17 08:44:32;;;;;;;34.10;18.50;;;8.50;99.90;;;;;;5176685;28;20430;-53
2023/04/17 08:47:07;;;;;;;28.70;18.23;;;8.50;99.90;;;;;;5176386;28;20529;-49
2023/04/17 08:49:42;;;;;;;39.90;18.50;;;8.50;99.90;;;;;;5178707;28;20234;-49
2023/04/17 08:52:13;;;;;;;25.57;17.37;;;8.50;99.90;;;;;;5178991;28;20434;-51
2023/04/17 08:54:44;;;;;;;26.57;16.53;;;8.50;99.90;;;;;;5177257;28;20456;-50
2023/04/17 08:57:14;;;;;;;32.13;18.20;;;8.40;99.90;;;;;;5170943;28;20992;-49
2023/04/17 08:59:45;;;;;;;31.80;17.77;;;8.30;99.90;;;;;;5178467;28;20209;-51
2023/04/17 09:02:16;;;;;;;33.43;19.23;;;8.30;99.90;;;;;;5182219;28;20254;-50
2023/04/17 09:04:47;;;;;;;27.80;17.83;;;8.30;99.90;;;;;;5176124;28;20184;-53
2023/04/17 09:07:28;;;;;;;38.07;16.00;;;8.50;99.90;;;;;;5185962;28;20574;-49
2023/04/17 09:09:59;;;;;;;24.13;15.73;;;8.70;99.90;;;;;;5175249;28;20446;-51
2023/04/17 09:12:29;;;;;;;21.13;15.87;;;8.90;99.90;;;;;;5176444;28;20443;-50
2023/04/17 09:15:14;;;;;;;30.20;16.03;;;8.90;99.90;;;;;;5177823;28;20313;-49
2023/04/17 09:17:45;;;;;;;27.07;16.77;;;8.90;99.90;;;;;;5179883;28;20203;-50
2023/04/17 09:20:16;;;;;;;29.07;17.40;;;8.90;99.90;;;;;;5175010;28;20458;-49
2023/04/17 09:22:47;;;;;;;31.47;16.00;;;8.70;99.90;;;;;;5170971;28;20427;-50
2023/04/17 09:25:20;;;;;;;22.50;15.73;;;8.60;99.90;;;;;;5172899;28;20188;-51
2023/04/17 09:27:50;;;;;;;23.37;16.20;;;8.70;99.90;;;;;;5175956;28;20275;-49
2023/04/17 09:30:25;;;;;;;20.50;12.90;;;8.70;99.90;;;;;;5177132;28;20531;-51
2023/04/17 09:33:03;;;;;;;21.17;13.77;;;9.00;99.90;;;;;;5176146;28;20532;-49
2023/04/17 09:35:38;;;;;;;17.67;13.67;;;9.30;99.90;;;;;;5178792;28;20439;-48
2023/04/17 09:38:09;;;;;;;18.87;12.30;;;9.60;99.90;;;;;;5175324;28;20462;-50
2023/04/17 09:40:41;;;;;;;20.13;12.50;;;9.70;99.90;;;;;;5177182;28;20475;-49
2023/04/17 09:43:11;;;;;;;21.40;14.30;;;9.80;99.90;;;;;;5182034;28;20173;-51
2023/04/17 09:45:43;;;;;;;32.13;14.93;;;10.00;99.90;;;;;;5179950;28;20797;-49
2023/04/17 09:48:14;;;;;;;22.13;12.23;;;10.10;99.90;;;;;;5174094;28;20202;-52
2023/04/17 09:50:45;;;;;;;20.90;12.67;;;10.30;99.90;;;;;;5174701;28;20450;-50
2023/04/17 09:53:18;;;;;;;20.63;13.40;;;10.40;99.90;;;;;;5186783;28;20554;-50
2023/04/17 09:55:52;;;;;;;24.13;13.67;;;10.30;99.90;;;;;;5166927;28;20518;-51
2023/04/17 09:58:22;;;;;;;26.23;12.80;;;10.40;99.90;;;;;;5174664;28;20461;-49
2023/04/17 10:00:54;;;;;;;17.37;13.50;;;10.40;99.90;;;;;;5177162;28;20470;-52
2023/04/17 10:03:25;;;;;;;23.27;13.50;;;10.20;99.90;;;;;;5180803;28;20751;-50
2023/04/17 10:05:56;;;;;;;22.20;11.80;;;10.30;99.90;;;;;;5170709;28;20446;-48
2023/04/17 10:08:27;;;;;;;18.30;12.03;;;10.40;99.90;;;;;;5169508;28;20467;-51
2023/04/17 10:11:06;;;;;;;19.23;13.47;;;10.60;99.90;;;;;;5189356;28;20450;-49
2023/04/17 10:13:39;;;;;;;36.27;13.27;;;10.60;99.90;;;;;;5177571;28;20455;-49
2023/04/17 10:16:10;;;;;;;32.70;13.27;;;10.50;99.90;;;;;;5172833;28;20469;-50
2023/04/17 10:18:40;;;;;;;14.20;11.07;;;10.50;99.90;;;;;;5169906;28;20840;-49
2023/04/17 10:21:23;;;;;;;17.97;11.43;;;10.70;99.90;;;;;;5167405;28;20200;-49
2023/04/17 10:23:53;;;;;;;17.90;11.57;;;10.90;99.90;;;;;;5181576;28;20215;-49
2023/04/17 10:26:24;;;;;;;18.40;11.10;;;10.70;99.90;;;;;;5181262;28;20862;-49
2023/04/17 10:28:58;;;;;;;15.57;11.50;;;10.50;99.90;;;;;;5178701;28;20653;-50
2023/04/17 10:32:14;;;;;;;19.90;11.50;;;10.70;99.90;;;;;;5179914;28;20180;-51
2023/04/17 10:34:45;;;;;;;14.93;11.10;;;10.80;99.90;;;;;;5175780;28;20986;-50
2023/04/17 10:37:16;;;;;;;14.40;11.40;;;11.10;99.90;;;;;;5176103;28;20476;-52
2023/04/17 10:39:59;;;;;;;14.57;10.83;;;11.30;99.90;;;;;;5181100;28;20212;-52
2023/04/17 10:42:31;;;;;;;20.20;11.70;;;11.50;99.90;;;;;;5179471;28;20231;-51
2023/04/17 10:45:05;;;;;;;19.17;11.47;;;11.70;99.90;;;;;;5179497;28;20431;-51
2023/04/17 10:47:37;;;;;;;19.40;11.47;;;11.40;99.90;;;;;;5182141;28;20451;-48
2023/04/17 10:50:08;;;;;;;19.50;10.30;;;11.30;99.90;;;;;;5183090;28;20465;-49
2023/04/17 10:52:40;;;;;;;12.90;10.70;;;11.40;99.90;;;;;;5182016;28;20427;-49
2023/04/17 10:55:19;;;;;;;15.67;10.23;;;11.50;99.90;;;;;;5180823;28;20427;-50
2023/04/17 10:58:20;;;;;;;14.93;11.00;;;11.50;99.90;;;;;;5174945;28;20458;-51
2023/04/17 11:00:51;;;;;;;24.63;10.80;;;11.40;99.70;;;;;;5197355;28;20597;-50
2023/04/17 11:03:22;;;;;;;13.93;9.90;;;11.10;99.50;;;;;;5182677;28;20915;-51
2023/04/17 11:05:53;;;;;;;14.87;11.10;;;11.20;99.90;;;;;;5180348;28;20455;-50
2023/04/17 11:08:24;;;;;;;19.43;11.47;;;11.30;99.90;;;;;;5176848;28;20490;-50
2023/04/17 11:10:57;;;;;;;14.83;10.80;;;11.50;99.90;;;;;;5172004;28;20417;-52
2023/04/17 11:13:32;;;;;;;25.03;12.17;;;11.60;99.90;;;;;;5180637;28;20218;-49
2023/04/17 11:16:03;;;;;;;20.70;10.20;;;11.40;99.90;;;;;;5176283;28;20442;-52
2023/04/17 11:18:36;;;;;;;18.57;11.23;;;11.50;99.90;;;;;;5184606;28;20971;-48
2023/04/17 11:21:10;;;;;;;21.40;11.13;;;11.70;99.90;;;;;;5173485;28;20459;-53
2023/04/17 11:23:51;;;;;;;18.00;11.80;;;11.90;99.90;;;;;;5177647;28;20505;-50
2023/04/17 11:26:22;;;;;;;14.37;10.37;;;12.00;99.90;;;;;;5171532;28;20435;-50
2023/04/17 11:28:53;;;;;;;12.70;10.17;;;11.80;99.90;;;;;;5175109;28;20451;-50
2023/04/17 11:31:23;;;;;;;18.23;13.17;;;11.80;99.90;;;;;;5174063;28;20271;-50
2023/04/17 11:33:54;;;;;;;19.33;11.73;;;11.70;99.90;;;;;;5171277;28;20344;-50
2023/04/17 11:36:25;;;;;;;18.20;11.17;;;11.50;99.90;;;;;;5178377;28;20231;-50
2023/04/17 11:38:56;;;;;;;17.17;11.60;;;11.50;99.90;;;;;;5180412;28;20200;-49
2023/04/17 11:41:41;;;;;;;15.20;10.77;;;11.30;99.90;;;;;;5176738;28;20208;-51
2023/04/17 11:44:12;;;;;;;29.67;11.83;;;11.30;99.90;;;;;;5184052;28;20433;-51
2023/04/17 11:46:52;;;;;;;13.10;10.20;;;11.00;99.90;;;;;;5186702;28;20408;-53
2023/04/17 11:49:31;;;;;;;21.20;11.53;;;11.20;99.90;;;;;;5178197;28;20935;-51
2023/04/17 11:52:03;;;;;;;17.20;12.20;;;11.40;99.90;;;;;;5176640;28;20454;-51
2023/04/17 11:54:36;;;;;;;18.93;11.10;;;11.50;99.90;;;;;;5174180;28;20511;-49
2023/04/17 11:57:15;;;;;;;21.93;13.00;;;11.50;99.90;;;;;;5177376;28;20466;-49
2023/04/17 11:59:46;;;;;;;25.93;12.53;;;11.50;99.90;;;;;;5176254;28;20543;-51
2023/04/17 12:02:16;;;;;;;26.20;12.50;;;11.30;99.90;;;;;;5197866;28;20452;-51
2023/04/17 12:04:47;;;;;;;17.10;10.97;;;11.30;99.90;;;;;;5175540;28;20220;-50
2023/04/17 12:07:24;;;;;;;18.03;11.17;;;11.40;99.90;;;;;;5176867;28;20211;-51
2023/04/17 12:09:56;;;;;;;13.90;11.37;;;11.20;99.90;;;;;;5178055;28;20199;-50
2023/04/17 12:12:28;;;;;;;15.50;11.53;;;11.00;99.90;;;;;;5176858;28;20857;-51
2023/04/17 12:14:58;;;;;;;20.47;12.43;;;10.80;99.90;;;;;;5180795;28;20799;-50
2023/04/17 12:17:29;;;;;;;18.23;12.07;;;10.60;99.90;;;;;;5175889;28;20526;-50
2023/04/17 12:20:02;;;;;;;16.07;12.43;;;10.30;99.90;;;;;;5177646;28;20195;-50
2023/04/17 12:22:33;;;;;;;18.10;12.43;;;10.20;99.90;;;;;;5176607;28;20177;-51
2023/04/17 12:25:04;;;;;;;19.10;12.00;;;9.90;99.90;;;;;;5174013;28;20818;-50
2023/04/17 12:27:35;;;;;;;17.53;12.20;;;9.80;99.90;;;;;;5175558;28;20231;-51
2023/04/17 12:30:06;;;;;;;23.93;12.20;;;9.70;99.90;;;;;;5179295;28;20551;-51
2023/04/17 12:32:38;;;;;;;23.20;11.60;;;9.70;99.90;;;;;;5177996;28;20188;-53
2023/04/17 12:35:09;;;;;;;16.43;10.80;;;9.70;99.90;;;;;;5175650;28;20571;-54
2023/04/17 12:37:40;;;;;;;19.03;10.80;;;9.60;99.90;;;;;;5177304;28;20510;-54
2023/04/17 12:40:10;;;;;;;15.60;10.80;;;9.60;99.90;;;;;;5176949;28;20715;-53
2023/04/17 12:42:41;;;;;;;14.77;10.87;;;9.50;99.90;;;;;;5178039;28;20440;-51
2023/04/17 12:45:12;;;;;;;17.90;11.07;;;9.50;99.90;;;;;;5175564;28;20195;-53
2023/04/17 12:47:43;;;;;;;17.67;9.33;;;9.60;99.90;;;;;;5180274;28;20290;-53
2023/04/17 12:50:14;;;;;;;13.80;9.43;;;9.80;99.90;;;;;;5178693;28;20440;-54
2023/04/17 12:52:45;;;;;;;19.40;10.77;;;9.90;99.90;;;;;;5177470;28;20184;-53
2023/04/17 12:55:15;;;;;;;16.57;10.83;;;9.70;99.90;;;;;;5174401;28;20196;-52
2023/04/17 12:57:46;;;;;;;15.00;10.40;;;9.90;99.90;;;;;;5174299;28;20196;-52